sensor_id;sensor_type;location;lat;lon;timestamp;P1;durP1;ratioP1;P2;durP2;ratioP2
71166;SDS011;58864;45.928;20.078;2022-10-15T00:00:11;19.73;;;8.65;;
71166;SDS011;58864;45.928;20.078;2022-10-15T00:02:36;19.65;;;8.02;;
71166;SDS011;58864;45.928;20.078;2022-10-15T00:05:04;20.13;;;8.50;;
71166;SDS011;58864;45.928;20.078;2022-10-15T00:07:31;18.50;;;8.35;;
71166;SDS011;58864;45.928;20.078;2022-10-15T00:09:58;16.52;;;7.28;;
71166;SDS011;58864;45.928;20.078;2022-10-15T00:12:27;19.55;;;8.45;;
71166;SDS011;58864;45.928;20.078;2022-10-15T00:14:54;20.67;;;7.73;;
71166;SDS011;58864;45.928;20.078;2022-10-15T00:17:20;17.17;;;7.53;;
71166;SDS011;58864;45.928;20.078;2022-10-15T00:19:46;17.42;;;7.43;;
71166;SDS011;58864;45.928;20.078;2022-10-15T00:22:13;17.33;;;7.00;;
71166;SDS011;58864;45.928;20.078;2022-10-15T00:24:41;14.52;;;6.53;;
71166;SDS011;58864;45.928;20.078;2022-10-15T00:27:10;14.93;;;6.53;;
71166;SDS011;58864;45.928;20.078;2022-10-15T00:29:35;15.05;;;7.00;;
71166;SDS011;58864;45.928;20.078;2022-10-15T00:32:02;16.33;;;6.65;;
71166;SDS011;58864;45.928;20.078;2022-10-15T00:34:27;17.35;;;6.70;;
71166;SDS011;58864;45.928;20.078;2022-10-15T00:36:54;16.23;;;7.07;;
71166;SDS011;58864;45.928;20.078;2022-10-15T00:39:25;18.30;;;6.88;;
71166;SDS011;58864;45.928;20.078;2022-10-15T00:41:50;14.07;;;6.13;;
71166;SDS011;58864;45.928;20.078;2022-10-15T00:52:58;13.43;;;6.45;;
71166;SDS011;58864;45.928;20.078;2022-10-15T00:57:55;12.98;;;6.40;;
71166;SDS011;58864;45.928;20.078;2022-10-15T01:00:27;14.40;;;6.33;;
71166;SDS011;58864;45.928;20.078;2022-10-15T01:02:55;13.27;;;6.43;;
71166;SDS011;58864;45.928;20.078;2022-10-15T01:05:20;18.77;;;6.60;;
71166;SDS011;58864;45.928;20.078;2022-10-15T01:07:47;16.75;;;6.88;;
71166;SDS011;58864;45.928;20.078;2022-10-15T01:10:13;13.50;;;6.32;;
71166;SDS011;58864;45.928;20.078;2022-10-15T01:12:52;16.67;;;6.70;;
71166;SDS011;58864;45.928;20.078;2022-10-15T01:15:43;17.27;;;6.25;;
71166;SDS011;58864;45.928;20.078;2022-10-15T01:18:19;15.60;;;7.10;;
71166;SDS011;58864;45.928;20.078;2022-10-15T01:21:15;15.15;;;6.45;;
71166;SDS011;58864;45.928;20.078;2022-10-15T01:32:21;13.07;;;6.18;;
71166;SDS011;58864;45.928;20.078;2022-10-15T01:35:13;15.45;;;5.95;;
71166;SDS011;58864;45.928;20.078;2022-10-15T01:37:41;17.70;;;6.22;;
71166;SDS011;58864;45.928;20.078;2022-10-15T01:40:14;15.77;;;5.83;;
71166;SDS011;58864;45.928;20.078;2022-10-15T01:42:57;12.57;;;6.10;;
71166;SDS011;58864;45.928;20.078;2022-10-15T01:45:26;14.00;;;6.00;;
71166;SDS011;58864;45.928;20.078;2022-10-15T01:48:04;14.30;;;5.78;;
71166;SDS011;58864;45.928;20.078;2022-10-15T01:50:31;13.05;;;6.03;;
71166;SDS011;58864;45.928;20.078;2022-10-15T01:53:01;15.07;;;6.50;;
71166;SDS011;58864;45.928;20.078;2022-10-15T01:55:28;13.43;;;6.00;;
71166;SDS011;58864;45.928;20.078;2022-10-15T01:57:55;13.20;;;6.00;;
71166;SDS011;58864;45.928;20.078;2022-10-15T02:00:22;16.77;;;6.50;;
71166;SDS011;58864;45.928;20.078;2022-10-15T02:02:48;18.30;;;6.50;;
71166;SDS011;58864;45.928;20.078;2022-10-15T02:05:23;15.43;;;6.13;;
71166;SDS011;58864;45.928;20.078;2022-10-15T02:08:19;17.35;;;6.55;;
71166;SDS011;58864;45.928;20.078;2022-10-15T02:11:14;13.98;;;6.53;;
71166;SDS011;58864;45.928;20.078;2022-10-15T02:16:36;12.35;;;6.00;;
71166;SDS011;58864;45.928;20.078;2022-10-15T02:21:41;17.23;;;6.15;;
71166;SDS011;58864;45.928;20.078;2022-10-15T02:24:13;16.50;;;6.78;;
71166;SDS011;58864;45.928;20.078;2022-10-15T02:26:48;16.58;;;6.80;;
71166;SDS011;58864;45.928;20.078;2022-10-15T02:29:19;12.45;;;6.20;;
71166;SDS011;58864;45.928;20.078;2022-10-15T02:31:47;14.77;;;6.40;;
71166;SDS011;58864;45.928;20.078;2022-10-15T02:34:17;14.27;;;6.45;;
71166;SDS011;58864;45.928;20.078;2022-10-15T02:36:45;13.77;;;6.65;;
71166;SDS011;58864;45.928;20.078;2022-10-15T02:39:14;16.35;;;7.45;;
71166;SDS011;58864;45.928;20.078;2022-10-15T02:41:41;15.55;;;7.15;;
71166;SDS011;58864;45.928;20.078;2022-10-15T02:44:07;17.67;;;6.63;;
71166;SDS011;58864;45.928;20.078;2022-10-15T02:46:37;15.65;;;6.70;;
71166;SDS011;58864;45.928;20.078;2022-10-15T02:49:02;16.35;;;6.95;;
71166;SDS011;58864;45.928;20.078;2022-10-15T02:51:29;14.23;;;6.60;;
71166;SDS011;58864;45.928;20.078;2022-10-15T02:53:55;17.02;;;7.43;;
71166;SDS011;58864;45.928;20.078;2022-10-15T02:56:21;14.52;;;7.63;;
71166;SDS011;58864;45.928;20.078;2022-10-15T02:58:47;12.57;;;6.50;;
71166;SDS011;58864;45.928;20.078;2022-10-15T03:01:14;18.95;;;7.35;;
71166;SDS011;58864;45.928;20.078;2022-10-15T03:03:41;18.55;;;7.50;;
71166;SDS011;58864;45.928;20.078;2022-10-15T03:06:06;17.95;;;7.85;;
71166;SDS011;58864;45.928;20.078;2022-10-15T03:08:31;14.70;;;6.90;;
71166;SDS011;58864;45.928;20.078;2022-10-15T03:10:59;14.18;;;6.75;;
71166;SDS011;58864;45.928;20.078;2022-10-15T03:13:27;16.25;;;6.80;;
71166;SDS011;58864;45.928;20.078;2022-10-15T03:15:55;26.15;;;7.60;;
71166;SDS011;58864;45.928;20.078;2022-10-15T03:18:20;16.30;;;6.93;;
71166;SDS011;58864;45.928;20.078;2022-10-15T03:20:55;14.27;;;6.40;;
71166;SDS011;58864;45.928;20.078;2022-10-15T03:23:21;18.20;;;8.13;;
71166;SDS011;58864;45.928;20.078;2022-10-15T03:25:51;15.13;;;7.18;;
71166;SDS011;58864;45.928;20.078;2022-10-15T03:28:24;14.75;;;7.00;;
71166;SDS011;58864;45.928;20.078;2022-10-15T03:30:52;16.73;;;6.93;;
71166;SDS011;58864;45.928;20.078;2022-10-15T03:33:20;18.45;;;7.72;;
71166;SDS011;58864;45.928;20.078;2022-10-15T03:35:46;16.10;;;6.97;;
71166;SDS011;58864;45.928;20.078;2022-10-15T03:38:14;14.20;;;6.78;;
71166;SDS011;58864;45.928;20.078;2022-10-15T03:40:42;15.63;;;7.78;;
71166;SDS011;58864;45.928;20.078;2022-10-15T03:43:11;17.07;;;6.93;;
71166;SDS011;58864;45.928;20.078;2022-10-15T03:45:36;17.17;;;7.75;;
71166;SDS011;58864;45.928;20.078;2022-10-15T03:48:04;17.43;;;8.23;;
71166;SDS011;58864;45.928;20.078;2022-10-15T03:50:34;14.67;;;6.90;;
71166;SDS011;58864;45.928;20.078;2022-10-15T03:53:03;18.83;;;8.07;;
71166;SDS011;58864;45.928;20.078;2022-10-15T03:55:30;14.75;;;7.32;;
71166;SDS011;58864;45.928;20.078;2022-10-15T03:57:56;20.77;;;7.72;;
71166;SDS011;58864;45.928;20.078;2022-10-15T04:00:21;16.80;;;7.97;;
71166;SDS011;58864;45.928;20.078;2022-10-15T04:02:50;19.90;;;8.10;;
71166;SDS011;58864;45.928;20.078;2022-10-15T04:05:17;16.73;;;7.47;;
71166;SDS011;58864;45.928;20.078;2022-10-15T04:07:42;19.37;;;7.63;;
71166;SDS011;58864;45.928;20.078;2022-10-15T04:10:10;15.98;;;8.07;;
71166;SDS011;58864;45.928;20.078;2022-10-15T04:12:41;17.75;;;7.63;;
71166;SDS011;58864;45.928;20.078;2022-10-15T04:15:11;17.67;;;7.22;;
71166;SDS011;58864;45.928;20.078;2022-10-15T04:17:40;17.90;;;7.67;;
71166;SDS011;58864;45.928;20.078;2022-10-15T04:20:07;16.67;;;7.78;;
71166;SDS011;58864;45.928;20.078;2022-10-15T04:22:37;18.52;;;7.70;;
71166;SDS011;58864;45.928;20.078;2022-10-15T04:25:07;19.02;;;7.68;;
71166;SDS011;58864;45.928;20.078;2022-10-15T04:27:32;17.13;;;7.82;;
71166;SDS011;58864;45.928;20.078;2022-10-15T04:30:01;21.30;;;7.87;;
71166;SDS011;58864;45.928;20.078;2022-10-15T04:32:31;17.52;;;7.93;;
71166;SDS011;58864;45.928;20.078;2022-10-15T04:34:58;18.23;;;8.48;;
71166;SDS011;58864;45.928;20.078;2022-10-15T04:37:22;18.88;;;8.35;;
71166;SDS011;58864;45.928;20.078;2022-10-15T04:39:51;15.82;;;7.70;;
71166;SDS011;58864;45.928;20.078;2022-10-15T04:42:19;19.83;;;8.13;;
71166;SDS011;58864;45.928;20.078;2022-10-15T04:44:47;21.85;;;8.35;;
71166;SDS011;58864;45.928;20.078;2022-10-15T04:47:13;23.17;;;8.88;;
71166;SDS011;58864;45.928;20.078;2022-10-15T04:49:39;21.70;;;8.73;;
71166;SDS011;58864;45.928;20.078;2022-10-15T04:52:05;21.63;;;8.50;;
71166;SDS011;58864;45.928;20.078;2022-10-15T04:54:32;16.83;;;7.60;;
71166;SDS011;58864;45.928;20.078;2022-10-15T04:57:03;18.58;;;7.95;;
71166;SDS011;58864;45.928;20.078;2022-10-15T04:59:31;20.83;;;8.38;;
71166;SDS011;58864;45.928;20.078;2022-10-15T05:01:57;24.42;;;8.18;;
71166;SDS011;58864;45.928;20.078;2022-10-15T05:04:23;19.13;;;8.50;;
71166;SDS011;58864;45.928;20.078;2022-10-15T05:06:48;24.87;;;7.97;;
71166;SDS011;58864;45.928;20.078;2022-10-15T05:09:13;25.63;;;8.57;;
71166;SDS011;58864;45.928;20.078;2022-10-15T05:11:37;25.98;;;8.13;;
71166;SDS011;58864;45.928;20.078;2022-10-15T05:14:02;16.53;;;8.20;;
71166;SDS011;58864;45.928;20.078;2022-10-15T05:16:28;17.90;;;8.30;;
71166;SDS011;58864;45.928;20.078;2022-10-15T05:18:56;19.05;;;8.55;;
71166;SDS011;58864;45.928;20.078;2022-10-15T05:21:25;17.63;;;8.55;;
71166;SDS011;58864;45.928;20.078;2022-10-15T05:23:51;19.20;;;7.60;;
71166;SDS011;58864;45.928;20.078;2022-10-15T05:26:19;21.75;;;7.93;;
71166;SDS011;58864;45.928;20.078;2022-10-15T05:28:45;16.17;;;8.13;;
71166;SDS011;58864;45.928;20.078;2022-10-15T05:31:11;17.13;;;7.67;;
71166;SDS011;58864;45.928;20.078;2022-10-15T05:33:38;21.83;;;8.13;;
71166;SDS011;58864;45.928;20.078;2022-10-15T05:38:42;16.23;;;8.00;;
71166;SDS011;58864;45.928;20.078;2022-10-15T05:41:09;17.23;;;8.63;;
71166;SDS011;58864;45.928;20.078;2022-10-15T05:43:33;17.47;;;8.27;;
71166;SDS011;58864;45.928;20.078;2022-10-15T05:45:58;18.30;;;7.50;;
71166;SDS011;58864;45.928;20.078;2022-10-15T05:48:23;16.90;;;8.07;;
71166;SDS011;58864;45.928;20.078;2022-10-15T05:50:48;20.48;;;8.02;;
71166;SDS011;58864;45.928;20.078;2022-10-15T05:53:15;16.88;;;8.38;;
71166;SDS011;58864;45.928;20.078;2022-10-15T05:55:40;21.08;;;8.45;;
71166;SDS011;58864;45.928;20.078;2022-10-15T05:58:05;15.40;;;7.77;;
71166;SDS011;58864;45.928;20.078;2022-10-15T06:00:31;17.63;;;8.40;;
71166;SDS011;58864;45.928;20.078;2022-10-15T06:02:57;17.80;;;8.33;;
71166;SDS011;58864;45.928;20.078;2022-10-15T06:05:22;21.80;;;7.95;;
71166;SDS011;58864;45.928;20.078;2022-10-15T06:07:51;16.17;;;8.18;;
71166;SDS011;58864;45.928;20.078;2022-10-15T06:10:17;15.20;;;7.63;;
71166;SDS011;58864;45.928;20.078;2022-10-15T06:12:42;20.30;;;8.10;;
71166;SDS011;58864;45.928;20.078;2022-10-15T06:15:07;18.83;;;9.07;;
71166;SDS011;58864;45.928;20.078;2022-10-15T06:17:32;18.23;;;8.50;;
71166;SDS011;58864;45.928;20.078;2022-10-15T06:19:58;20.58;;;8.55;;
71166;SDS011;58864;45.928;20.078;2022-10-15T06:22:22;16.87;;;8.23;;
71166;SDS011;58864;45.928;20.078;2022-10-15T06:24:48;21.13;;;8.57;;
71166;SDS011;58864;45.928;20.078;2022-10-15T06:27:13;25.88;;;9.98;;
71166;SDS011;58864;45.928;20.078;2022-10-15T06:29:38;20.92;;;9.45;;
71166;SDS011;58864;45.928;20.078;2022-10-15T06:32:07;22.42;;;9.02;;
71166;SDS011;58864;45.928;20.078;2022-10-15T06:34:32;21.33;;;9.50;;
71166;SDS011;58864;45.928;20.078;2022-10-15T06:36:58;18.00;;;8.88;;
71166;SDS011;58864;45.928;20.078;2022-10-15T06:39:22;16.58;;;8.32;;
71166;SDS011;58864;45.928;20.078;2022-10-15T06:41:49;20.23;;;9.40;;
71166;SDS011;58864;45.928;20.078;2022-10-15T06:44:14;20.33;;;9.00;;
71166;SDS011;58864;45.928;20.078;2022-10-15T06:46:40;20.45;;;8.65;;
71166;SDS011;58864;45.928;20.078;2022-10-15T06:49:05;18.38;;;8.07;;
71166;SDS011;58864;45.928;20.078;2022-10-15T06:51:31;16.85;;;8.63;;
71166;SDS011;58864;45.928;20.078;2022-10-15T06:53:56;17.00;;;7.40;;
71166;SDS011;58864;45.928;20.078;2022-10-15T06:56:21;16.95;;;7.97;;
71166;SDS011;58864;45.928;20.078;2022-10-15T06:58:46;20.23;;;8.45;;
71166;SDS011;58864;45.928;20.078;2022-10-15T07:01:14;22.13;;;9.23;;
71166;SDS011;58864;45.928;20.078;2022-10-15T07:03:41;16.07;;;8.30;;
71166;SDS011;58864;45.928;20.078;2022-10-15T07:06:07;15.93;;;7.53;;
71166;SDS011;58864;45.928;20.078;2022-10-15T07:08:32;16.02;;;7.60;;
71166;SDS011;58864;45.928;20.078;2022-10-15T07:10:56;16.83;;;7.40;;
71166;SDS011;58864;45.928;20.078;2022-10-15T07:13:22;13.55;;;7.53;;
71166;SDS011;58864;45.928;20.078;2022-10-15T07:15:47;14.23;;;6.97;;
71166;SDS011;58864;45.928;20.078;2022-10-15T07:18:17;14.10;;;6.88;;
71166;SDS011;58864;45.928;20.078;2022-10-15T07:20:43;14.50;;;7.35;;
71166;SDS011;58864;45.928;20.078;2022-10-15T07:23:07;16.48;;;7.20;;
71166;SDS011;58864;45.928;20.078;2022-10-15T07:25:32;15.43;;;6.97;;
71166;SDS011;58864;45.928;20.078;2022-10-15T07:27:58;14.85;;;7.10;;
71166;SDS011;58864;45.928;20.078;2022-10-15T07:30:23;19.25;;;7.80;;
71166;SDS011;58864;45.928;20.078;2022-10-15T07:32:51;16.40;;;7.10;;
71166;SDS011;58864;45.928;20.078;2022-10-15T07:35:16;14.93;;;7.00;;
71166;SDS011;58864;45.928;20.078;2022-10-15T07:37:41;15.40;;;7.63;;
71166;SDS011;58864;45.928;20.078;2022-10-15T07:40:05;17.83;;;6.50;;
71166;SDS011;58864;45.928;20.078;2022-10-15T07:42:31;17.35;;;6.90;;
71166;SDS011;58864;45.928;20.078;2022-10-15T07:44:55;14.95;;;7.00;;
71166;SDS011;58864;45.928;20.078;2022-10-15T07:47:21;11.27;;;6.33;;
71166;SDS011;58864;45.928;20.078;2022-10-15T07:49:46;15.18;;;6.43;;
71166;SDS011;58864;45.928;20.078;2022-10-15T07:52:12;12.52;;;6.47;;
71166;SDS011;58864;45.928;20.078;2022-10-15T07:54:36;14.25;;;6.93;;
71166;SDS011;58864;45.928;20.078;2022-10-15T07:57:02;16.38;;;7.10;;
71166;SDS011;58864;45.928;20.078;2022-10-15T07:59:30;13.53;;;6.23;;
71166;SDS011;58864;45.928;20.078;2022-10-15T08:01:55;19.80;;;6.32;;
71166;SDS011;58864;45.928;20.078;2022-10-15T08:04:20;12.98;;;5.90;;
71166;SDS011;58864;45.928;20.078;2022-10-15T08:06:47;13.15;;;6.03;;
71166;SDS011;58864;45.928;20.078;2022-10-15T08:09:13;16.50;;;6.30;;
71166;SDS011;58864;45.928;20.078;2022-10-15T08:11:37;13.65;;;5.75;;
71166;SDS011;58864;45.928;20.078;2022-10-15T08:14:03;12.48;;;6.32;;
71166;SDS011;58864;45.928;20.078;2022-10-15T08:16:28;15.45;;;6.05;;
71166;SDS011;58864;45.928;20.078;2022-10-15T08:18:53;12.80;;;6.60;;
71166;SDS011;58864;45.928;20.078;2022-10-15T08:21:21;17.23;;;7.22;;
71166;SDS011;58864;45.928;20.078;2022-10-15T08:23:46;13.10;;;5.88;;
71166;SDS011;58864;45.928;20.078;2022-10-15T08:26:11;12.30;;;5.65;;
71166;SDS011;58864;45.928;20.078;2022-10-15T08:28:36;13.00;;;6.00;;
71166;SDS011;58864;45.928;20.078;2022-10-15T08:31:00;15.70;;;6.13;;
71166;SDS011;58864;45.928;20.078;2022-10-15T08:33:26;16.27;;;5.72;;
71166;SDS011;58864;45.928;20.078;2022-10-15T08:35:51;12.63;;;5.22;;
71166;SDS011;58864;45.928;20.078;2022-10-15T08:38:15;11.90;;;4.83;;
71166;SDS011;58864;45.928;20.078;2022-10-15T08:40:40;13.77;;;5.25;;
71166;SDS011;58864;45.928;20.078;2022-10-15T08:43:16;14.60;;;5.83;;
71166;SDS011;58864;45.928;20.078;2022-10-15T08:45:43;11.20;;;4.78;;
71166;SDS011;58864;45.928;20.078;2022-10-15T08:48:13;12.57;;;5.38;;
71166;SDS011;58864;45.928;20.078;2022-10-15T08:51:03;14.23;;;5.75;;
71166;SDS011;58864;45.928;20.078;2022-10-15T08:53:33;14.15;;;4.68;;
71166;SDS011;58864;45.928;20.078;2022-10-15T08:56:03;12.40;;;4.40;;
71166;SDS011;58864;45.928;20.078;2022-10-15T09:03:55;12.60;;;5.22;;
71166;SDS011;58864;45.928;20.078;2022-10-15T09:06:29;20.10;;;5.45;;
71166;SDS011;58864;45.928;20.078;2022-10-15T09:14:03;10.15;;;5.55;;
71166;SDS011;58864;45.928;20.078;2022-10-15T09:16:31;10.82;;;5.50;;
71166;SDS011;58864;45.928;20.078;2022-10-15T09:19:03;18.15;;;5.97;;
71166;SDS011;58864;45.928;20.078;2022-10-15T09:21:30;12.93;;;5.70;;
71166;SDS011;58864;45.928;20.078;2022-10-15T09:23:57;10.20;;;5.22;;
71166;SDS011;58864;45.928;20.078;2022-10-15T09:26:48;12.57;;;5.57;;
71166;SDS011;58864;45.928;20.078;2022-10-15T09:29:22;14.15;;;5.30;;
71166;SDS011;58864;45.928;20.078;2022-10-15T09:34:55;10.27;;;4.97;;
71166;SDS011;58864;45.928;20.078;2022-10-15T09:37:26;14.68;;;5.18;;
71166;SDS011;58864;45.928;20.078;2022-10-15T09:40:01;16.35;;;5.63;;
71166;SDS011;58864;45.928;20.078;2022-10-15T09:42:33;14.55;;;6.03;;
71166;SDS011;58864;45.928;20.078;2022-10-15T09:45:07;13.02;;;5.93;;
71166;SDS011;58864;45.928;20.078;2022-10-15T09:47:34;12.80;;;5.50;;
71166;SDS011;58864;45.928;20.078;2022-10-15T09:50:00;10.98;;;5.43;;
71166;SDS011;58864;45.928;20.078;2022-10-15T09:55:44;16.67;;;5.10;;
71166;SDS011;58864;45.928;20.078;2022-10-15T09:58:17;13.85;;;4.90;;
71166;SDS011;58864;45.928;20.078;2022-10-15T10:01:01;13.70;;;4.73;;
71166;SDS011;58864;45.928;20.078;2022-10-15T10:03:28;15.68;;;5.40;;
71166;SDS011;58864;45.928;20.078;2022-10-15T10:06:05;13.27;;;5.28;;
71166;SDS011;58864;45.928;20.078;2022-10-15T10:08:51;15.00;;;5.28;;
71166;SDS011;58864;45.928;20.078;2022-10-15T10:11:22;11.10;;;4.68;;
71166;SDS011;58864;45.928;20.078;2022-10-15T10:13:50;12.73;;;5.00;;
71166;SDS011;58864;45.928;20.078;2022-10-15T10:16:19;10.63;;;4.57;;
71166;SDS011;58864;45.928;20.078;2022-10-15T10:18:59;9.27;;;4.43;;
71166;SDS011;58864;45.928;20.078;2022-10-15T10:21:37;10.10;;;4.40;;
71166;SDS011;58864;45.928;20.078;2022-10-15T10:24:17;11.45;;;4.68;;
71166;SDS011;58864;45.928;20.078;2022-10-15T10:26:44;11.47;;;4.10;;
71166;SDS011;58864;45.928;20.078;2022-10-15T10:29:10;8.90;;;4.45;;
71166;SDS011;58864;45.928;20.078;2022-10-15T10:31:42;13.55;;;4.35;;
71166;SDS011;58864;45.928;20.078;2022-10-15T10:34:09;18.08;;;5.00;;
71166;SDS011;58864;45.928;20.078;2022-10-15T10:36:38;12.20;;;5.32;;
71166;SDS011;58864;45.928;20.078;2022-10-15T10:44:33;16.08;;;4.55;;
71166;SDS011;58864;45.928;20.078;2022-10-15T10:49:30;9.80;;;4.03;;
71166;SDS011;58864;45.928;20.078;2022-10-15T10:51:55;11.23;;;4.47;;
71166;SDS011;58864;45.928;20.078;2022-10-15T10:54:20;14.57;;;4.47;;
71166;SDS011;58864;45.928;20.078;2022-10-15T10:56:44;10.00;;;4.23;;
71166;SDS011;58864;45.928;20.078;2022-10-15T11:01:36;11.70;;;4.28;;
71166;SDS011;58864;45.928;20.078;2022-10-15T11:04:03;10.10;;;4.15;;
71166;SDS011;58864;45.928;20.078;2022-10-15T11:14:53;8.82;;;4.38;;
71166;SDS011;58864;45.928;20.078;2022-10-15T11:17:43;8.90;;;4.05;;
71166;SDS011;58864;45.928;20.078;2022-10-15T11:28:33;34.47;;;5.75;;
71166;SDS011;58864;45.928;20.078;2022-10-15T11:34:09;11.27;;;3.87;;
71166;SDS011;58864;45.928;20.078;2022-10-15T11:42:14;8.95;;;3.72;;
71166;SDS011;58864;45.928;20.078;2022-10-15T11:50:18;10.32;;;4.03;;
71166;SDS011;58864;45.928;20.078;2022-10-15T11:55:31;10.88;;;4.60;;
71166;SDS011;58864;45.928;20.078;2022-10-15T11:58:27;12.98;;;4.28;;
71166;SDS011;58864;45.928;20.078;2022-10-15T12:01:11;9.13;;;3.43;;
71166;SDS011;58864;45.928;20.078;2022-10-15T12:06:49;12.15;;;4.63;;
71166;SDS011;58864;45.928;20.078;2022-10-15T12:09:19;10.27;;;4.05;;
71166;SDS011;58864;45.928;20.078;2022-10-15T12:12:03;13.98;;;4.03;;
71166;SDS011;58864;45.928;20.078;2022-10-15T12:19:46;9.05;;;3.72;;
71166;SDS011;58864;45.928;20.078;2022-10-15T12:22:29;10.38;;;4.30;;
71166;SDS011;58864;45.928;20.078;2022-10-15T12:30:33;27.80;;;5.53;;
71166;SDS011;58864;45.928;20.078;2022-10-15T12:33:01;23.13;;;4.93;;
71166;SDS011;58864;45.928;20.078;2022-10-15T12:35:34;14.82;;;4.18;;
71166;SDS011;58864;45.928;20.078;2022-10-15T12:38:17;47.13;;;6.93;;
71166;SDS011;58864;45.928;20.078;2022-10-15T12:40:45;14.63;;;4.33;;
71166;SDS011;58864;45.928;20.078;2022-10-15T12:43:19;13.13;;;4.22;;
71166;SDS011;58864;45.928;20.078;2022-10-15T12:45:49;10.00;;;3.35;;
71166;SDS011;58864;45.928;20.078;2022-10-15T12:53:41;14.07;;;3.38;;
71166;SDS011;58864;45.928;20.078;2022-10-15T12:58:44;10.80;;;3.45;;
71166;SDS011;58864;45.928;20.078;2022-10-15T13:11:20;9.30;;;3.20;;
71166;SDS011;58864;45.928;20.078;2022-10-15T13:13:52;9.95;;;3.30;;
71166;SDS011;58864;45.928;20.078;2022-10-15T13:16:33;11.53;;;3.20;;
71166;SDS011;58864;45.928;20.078;2022-10-15T13:18:58;8.18;;;2.60;;
71166;SDS011;58864;45.928;20.078;2022-10-15T13:21:45;13.02;;;3.75;;
71166;SDS011;58864;45.928;20.078;2022-10-15T13:24:13;9.70;;;3.23;;
71166;SDS011;58864;45.928;20.078;2022-10-15T13:26:41;9.48;;;3.20;;
71166;SDS011;58864;45.928;20.078;2022-10-15T13:29:12;9.52;;;3.13;;
71166;SDS011;58864;45.928;20.078;2022-10-15T13:31:39;7.28;;;3.00;;
71166;SDS011;58864;45.928;20.078;2022-10-15T13:36:39;10.30;;;3.53;;
71166;SDS011;58864;45.928;20.078;2022-10-15T13:39:06;10.57;;;3.05;;
71166;SDS011;58864;45.928;20.078;2022-10-15T13:44:54;11.63;;;3.22;;
71166;SDS011;58864;45.928;20.078;2022-10-15T13:47:27;7.78;;;2.90;;
71166;SDS011;58864;45.928;20.078;2022-10-15T13:55:46;10.70;;;3.20;;
71166;SDS011;58864;45.928;20.078;2022-10-15T14:01:08;15.50;;;2.85;;
71166;SDS011;58864;45.928;20.078;2022-10-15T14:03:44;9.68;;;2.67;;
71166;SDS011;58864;45.928;20.078;2022-10-15T14:08:52;7.93;;;2.40;;
71166;SDS011;58864;45.928;20.078;2022-10-15T14:11:19;6.55;;;2.33;;
71166;SDS011;58864;45.928;20.078;2022-10-15T14:13:45;8.13;;;2.83;;
71166;SDS011;58864;45.928;20.078;2022-10-15T14:16:20;9.18;;;2.33;;
71166;SDS011;58864;45.928;20.078;2022-10-15T14:18:47;6.38;;;2.20;;
71166;SDS011;58864;45.928;20.078;2022-10-15T14:21:31;13.73;;;2.57;;
71166;SDS011;58864;45.928;20.078;2022-10-15T14:26:52;11.45;;;2.58;;
71166;SDS011;58864;45.928;20.078;2022-10-15T14:31:48;6.18;;;2.30;;
71166;SDS011;58864;45.928;20.078;2022-10-15T14:36:54;8.75;;;2.38;;
71166;SDS011;58864;45.928;20.078;2022-10-15T14:39:28;9.68;;;2.63;;
71166;SDS011;58864;45.928;20.078;2022-10-15T14:41:56;12.17;;;2.50;;
71166;SDS011;58864;45.928;20.078;2022-10-15T14:44:45;10.30;;;3.13;;
71166;SDS011;58864;45.928;20.078;2022-10-15T14:47:25;10.52;;;3.03;;
71166;SDS011;58864;45.928;20.078;2022-10-15T14:49:54;9.43;;;3.15;;
71166;SDS011;58864;45.928;20.078;2022-10-15T14:52:22;10.30;;;2.63;;
71166;SDS011;58864;45.928;20.078;2022-10-15T14:57:52;10.93;;;3.72;;
71166;SDS011;58864;45.928;20.078;2022-10-15T15:00:53;8.23;;;2.67;;
71166;SDS011;58864;45.928;20.078;2022-10-15T15:03:27;11.90;;;3.47;;
71166;SDS011;58864;45.928;20.078;2022-10-15T15:05:54;11.23;;;2.80;;
71166;SDS011;58864;45.928;20.078;2022-10-15T15:08:20;11.70;;;4.13;;
71166;SDS011;58864;45.928;20.078;2022-10-15T15:10:49;14.10;;;4.10;;
71166;SDS011;58864;45.928;20.078;2022-10-15T15:13:22;13.43;;;5.45;;
71166;SDS011;58864;45.928;20.078;2022-10-15T15:15:52;16.92;;;4.15;;
71166;SDS011;58864;45.928;20.078;2022-10-15T15:18:19;10.97;;;3.00;;
71166;SDS011;58864;45.928;20.078;2022-10-15T15:20:49;14.48;;;4.43;;
71166;SDS011;58864;45.928;20.078;2022-10-15T15:23:18;11.52;;;3.53;;
71166;SDS011;58864;45.928;20.078;2022-10-15T15:25:47;12.25;;;3.58;;
71166;SDS011;58864;45.928;20.078;2022-10-15T15:28:19;15.73;;;5.13;;
71166;SDS011;58864;45.928;20.078;2022-10-15T15:30:46;18.50;;;4.37;;
71166;SDS011;58864;45.928;20.078;2022-10-15T15:33:14;10.15;;;4.20;;
71166;SDS011;58864;45.928;20.078;2022-10-15T15:35:40;13.52;;;5.25;;
71166;SDS011;58864;45.928;20.078;2022-10-15T15:38:14;14.27;;;4.15;;
71166;SDS011;58864;45.928;20.078;2022-10-15T15:40:43;13.65;;;4.20;;
71166;SDS011;58864;45.928;20.078;2022-10-15T15:43:13;9.10;;;3.90;;
71166;SDS011;58864;45.928;20.078;2022-10-15T15:45:44;11.63;;;4.20;;
71166;SDS011;58864;45.928;20.078;2022-10-15T15:48:13;13.32;;;3.70;;
71166;SDS011;58864;45.928;20.078;2022-10-15T15:50:41;9.20;;;3.33;;
71166;SDS011;58864;45.928;20.078;2022-10-15T15:53:09;10.65;;;4.03;;
71166;SDS011;58864;45.928;20.078;2022-10-15T15:55:36;18.20;;;4.67;;
71166;SDS011;58864;45.928;20.078;2022-10-15T15:58:06;14.98;;;5.45;;
71166;SDS011;58864;45.928;20.078;2022-10-15T16:00:31;12.20;;;5.07;;
71166;SDS011;58864;45.928;20.078;2022-10-15T16:02:59;16.42;;;5.85;;
71166;SDS011;58864;45.928;20.078;2022-10-15T16:05:24;12.18;;;4.78;;
71166;SDS011;58864;45.928;20.078;2022-10-15T16:07:52;14.07;;;5.63;;
71166;SDS011;58864;45.928;20.078;2022-10-15T16:10:19;14.38;;;6.70;;
71166;SDS011;58864;45.928;20.078;2022-10-15T16:12:47;18.80;;;7.35;;
71166;SDS011;58864;45.928;20.078;2022-10-15T16:15:12;18.67;;;8.10;;
71166;SDS011;58864;45.928;20.078;2022-10-15T16:17:38;21.85;;;8.30;;
71166;SDS011;58864;45.928;20.078;2022-10-15T16:20:04;16.17;;;6.60;;
71166;SDS011;58864;45.928;20.078;2022-10-15T16:22:29;15.38;;;6.78;;
71166;SDS011;58864;45.928;20.078;2022-10-15T16:24:54;17.05;;;7.45;;
71166;SDS011;58864;45.928;20.078;2022-10-15T16:27:23;16.45;;;7.93;;
71166;SDS011;58864;45.928;20.078;2022-10-15T16:29:52;15.37;;;6.30;;
71166;SDS011;58864;45.928;20.078;2022-10-15T16:32:18;22.30;;;8.38;;
71166;SDS011;58864;45.928;20.078;2022-10-15T16:34:46;16.73;;;7.50;;
71166;SDS011;58864;45.928;20.078;2022-10-15T16:37:17;14.88;;;6.68;;
71166;SDS011;58864;45.928;20.078;2022-10-15T16:39:41;15.98;;;7.28;;
71166;SDS011;58864;45.928;20.078;2022-10-15T16:42:07;16.47;;;7.77;;
71166;SDS011;58864;45.928;20.078;2022-10-15T16:44:34;16.85;;;6.95;;
71166;SDS011;58864;45.928;20.078;2022-10-15T16:47:01;12.73;;;5.57;;
71166;SDS011;58864;45.928;20.078;2022-10-15T16:49:27;11.57;;;5.40;;
71166;SDS011;58864;45.928;20.078;2022-10-15T16:51:58;10.73;;;4.95;;
71166;SDS011;58864;45.928;20.078;2022-10-15T16:54:24;16.67;;;5.93;;
71166;SDS011;58864;45.928;20.078;2022-10-15T16:56:51;15.52;;;5.65;;
71166;SDS011;58864;45.928;20.078;2022-10-15T16:59:16;14.20;;;6.37;;
71166;SDS011;58864;45.928;20.078;2022-10-15T17:01:44;15.80;;;6.35;;